createdAt,value
2023-05-07T02:03:06.677Z,4.50
2023-05-07T02:05:50.973Z,4.50
2023-05-07T02:08:50.717Z,4.70
2023-05-07T02:11:37.923Z,5.00
2023-05-07T02:14:27.082Z,4.70
2023-05-07T02:17:05.251Z,4.60
2023-05-07T02:19:35.337Z,4.20
2023-05-07T02:22:15.261Z,4.50
2023-05-07T02:24:56.799Z,4.30
2023-05-07T02:27:34.074Z,4.60
2023-05-07T02:33:10.815Z,4.50
2023-05-07T02:35:41.388Z,3.80
2023-05-07T02:38:12.379Z,4.30
2023-05-07T02:40:41.428Z,3.80
2023-05-07T02:43:28.702Z,4.60
2023-05-07T02:46:16.870Z,3.90
2023-05-07T02:48:59.843Z,4.50
2023-05-07T02:54:33.158Z,3.90
2023-05-07T02:57:20.342Z,4.10
2023-05-07T03:00:17.526Z,4.10
2023-05-07T03:03:01.723Z,3.90
2023-05-07T03:05:49.067Z,4.20
2023-05-07T03:08:37.542Z,3.90
2023-05-07T03:11:09.817Z,3.80
2023-05-07T03:13:37.730Z,3.90
2023-05-07T03:19:05.411Z,3.90
2023-05-07T03:21:52.866Z,4.30
2023-05-07T03:24:33.125Z,4.10
2023-05-07T03:27:20.545Z,4.00
2023-05-07T03:30:09.979Z,4.00
2023-05-07T03:32:57.993Z,4.30
2023-05-07T03:35:27.876Z,4.80
2023-05-07T03:38:15.401Z,3.90
2023-05-07T03:40:45.870Z,4.00
2023-05-07T03:46:18.858Z,4.00
2023-05-07T03:48:58.588Z,4.10
2023-05-07T03:51:29.010Z,4.10
2023-05-07T03:54:06.727Z,4.40
2023-05-07T03:56:34.717Z,4.40
2023-05-07T03:59:02.477Z,4.40
2023-05-07T04:01:30.020Z,3.90
2023-05-07T04:04:05.421Z,3.80
2023-05-07T04:06:40.592Z,4.10
2023-05-07T04:09:11.011Z,3.90
2023-05-07T04:11:41.334Z,3.70
2023-05-07T04:14:10.551Z,3.70
2023-05-07T04:19:13.232Z,3.60
2023-05-07T04:22:00.559Z,3.90
2023-05-07T04:24:36.856Z,3.70
2023-05-07T04:27:13.742Z,3.70
2023-05-07T04:29:48.568Z,4.00
2023-05-07T04:32:37.531Z,4.10
2023-05-07T04:35:15.910Z,4.30
2023-05-07T04:37:55.666Z,4.00
2023-05-07T04:40:24.747Z,4.00
2023-05-07T04:45:36.603Z,3.80
2023-05-07T04:48:12.750Z,3.70
2023-05-07T04:51:00.455Z,3.70
2023-05-07T04:53:38.266Z,3.30
2023-05-07T04:56:11.444Z,3.80
2023-05-07T04:58:41.300Z,3.60
2023-05-07T05:01:08.922Z,3.70
2023-05-07T05:03:36.308Z,3.70
2023-05-07T05:06:03.574Z,3.70
2023-05-07T05:08:33.340Z,3.60
2023-05-07T05:11:01.112Z,3.60
2023-05-07T05:13:28.364Z,3.70
2023-05-07T05:15:59.390Z,3.30
2023-05-07T05:18:28.747Z,3.60
2023-05-07T05:20:56.569Z,3.50
2023-05-07T05:23:24.023Z,3.10
2023-05-07T05:25:51.386Z,3.60
2023-05-07T05:28:18.945Z,3.50
2023-05-07T05:30:46.085Z,3.30
2023-05-07T05:33:13.699Z,3.70
2023-05-07T05:35:40.950Z,3.10
2023-05-07T05:38:10.684Z,2.80
2023-05-07T05:40:39.610Z,3.00
2023-05-07T05:43:06.783Z,3.60
2023-05-07T05:45:33.920Z,2.90
2023-05-07T05:48:01.650Z,3.00
2023-05-07T05:50:30.369Z,2.70
2023-05-07T05:52:57.712Z,3.20
2023-05-07T05:55:26.309Z,3.10
2023-05-07T05:57:53.453Z,3.10
2023-05-07T06:00:24.474Z,3.90
2023-05-07T06:02:58.169Z,2.50
2023-05-07T06:05:28.519Z,2.80
2023-05-07T06:07:56.175Z,2.70
2023-05-07T06:10:23.297Z,3.00
2023-05-07T06:12:50.497Z,2.60
2023-05-07T06:15:20.076Z,2.90
2023-05-07T06:17:51.336Z,3.70
2023-05-07T06:20:18.505Z,2.80
2023-05-07T06:22:48.505Z,2.80
2023-05-07T06:25:16.281Z,3.70
2023-05-07T06:27:43.745Z,2.60
2023-05-07T06:30:22.369Z,2.90
2023-05-07T06:32:53.072Z,2.20
2023-05-07T06:35:20.429Z,2.60
2023-05-07T06:37:48.410Z,2.10
2023-05-07T06:40:22.549Z,2.80
2023-05-07T06:42:50.112Z,2.60
2023-05-07T06:45:37.364Z,2.50
2023-05-07T06:48:14.839Z,2.70
2023-05-07T06:50:56.806Z,2.20
2023-05-07T06:53:44.529Z,2.70
2023-05-07T06:56:31.666Z,2.80
2023-05-07T06:59:08.766Z,2.90
2023-05-07T07:01:38.759Z,3.50
2023-05-07T07:04:10.098Z,2.70
2023-05-07T07:06:37.379Z,2.40
2023-05-07T07:09:07.004Z,2.60
2023-05-07T07:11:54.479Z,2.80
2023-05-07T07:14:22.690Z,3.10
2023-05-07T07:16:51.031Z,2.50
2023-05-07T07:19:40.323Z,2.70
2023-05-07T07:22:07.445Z,2.50
2023-05-07T07:24:36.759Z,2.20
2023-05-07T07:27:24.607Z,2.90
2023-05-07T07:30:12.960Z,2.30
2023-05-07T07:32:41.322Z,2.80
2023-05-07T07:35:10.150Z,1.90
2023-05-07T07:37:37.760Z,2.80
2023-05-07T07:40:09.851Z,2.50
2023-05-07T07:42:37.871Z,2.60
2023-05-07T07:45:09.996Z,2.40
2023-05-07T07:47:40.040Z,2.50
2023-05-07T07:50:09.568Z,1.80
2023-05-07T07:52:37.106Z,2.40
2023-05-07T07:55:04.704Z,2.30
2023-05-07T07:57:31.751Z,2.40
2023-05-07T07:59:59.104Z,2.00
2023-05-07T08:02:46.610Z,2.80
2023-05-07T08:05:34.570Z,2.70
2023-05-07T08:08:07.080Z,7.50
2023-05-07T08:10:36.250Z,2.40
2023-05-07T08:13:08.137Z,2.70
2023-05-07T08:15:37.008Z,2.50
2023-05-07T08:18:05.136Z,2.50
2023-05-07T08:20:33.654Z,2.40
2023-05-07T08:23:01.097Z,2.30
2023-05-07T08:25:28.526Z,2.30
2023-05-07T08:27:55.841Z,2.40
2023-05-07T08:30:23.486Z,4.60
2023-05-07T08:32:51.814Z,2.20
2023-05-07T08:35:19.021Z,2.00
2023-05-07T08:37:46.710Z,2.10
2023-05-07T08:40:15.087Z,2.00
2023-05-07T08:42:44.209Z,1.70
2023-05-07T08:45:13.453Z,1.70
2023-05-07T08:47:48.546Z,2.00
2023-05-07T08:50:19.866Z,2.30
2023-05-07T08:52:47.249Z,2.60
2023-05-07T08:55:17.946Z,2.30
2023-05-07T08:57:48.050Z,2.10
2023-05-07T09:00:19.850Z,2.10
2023-05-07T09:02:56.581Z,2.20
2023-05-07T09:05:45.106Z,1.90
2023-05-07T09:08:12.507Z,2.20
2023-05-07T09:10:39.701Z,2.20
2023-05-07T09:13:19.405Z,1.80
2023-05-07T09:15:46.677Z,1.80
2023-05-07T09:18:16.668Z,1.60
2023-05-07T09:21:04.521Z,2.40
2023-05-07T09:23:31.564Z,2.60
2023-05-07T09:26:09.698Z,1.90
2023-05-07T09:28:37.005Z,2.40
2023-05-07T09:31:04.054Z,1.90
2023-05-07T09:33:32.170Z,1.70
2023-05-07T09:36:00.110Z,1.70
2023-05-07T09:38:29.700Z,2.00
2023-05-07T09:41:08.106Z,1.90
2023-05-07T09:43:41.220Z,1.90
2023-05-07T09:46:16.346Z,1.90
2023-05-07T09:48:49.432Z,2.30
2023-05-07T09:51:23.918Z,1.80
2023-05-07T09:53:52.851Z,2.00
2023-05-07T09:56:25.006Z,1.80
2023-05-07T09:58:54.821Z,2.10
2023-05-07T10:01:38.202Z,1.80
2023-05-07T10:04:16.115Z,1.80
2023-05-07T10:06:54.468Z,1.50
2023-05-07T10:09:24.902Z,1.60
2023-05-07T10:11:52.653Z,1.80
2023-05-07T10:14:23.192Z,1.90
2023-05-07T10:16:51.475Z,2.90
2023-05-07T10:19:24.251Z,1.40
2023-05-07T10:21:58.884Z,1.40
2023-05-07T10:24:35.052Z,1.50
2023-05-07T10:27:06.422Z,1.90
2023-05-07T10:29:41.401Z,1.80
2023-05-07T10:32:25.921Z,1.60
2023-05-07T10:34:58.177Z,1.70
2023-05-07T10:37:26.641Z,1.60
2023-05-07T10:40:04.050Z,1.50
2023-05-07T10:42:31.858Z,1.90
2023-05-07T10:44:59.105Z,1.70
2023-05-07T10:47:28.705Z,1.60
2023-05-07T10:50:24.906Z,1.50
2023-05-07T10:53:27.234Z,1.50
2023-05-07T10:56:32.250Z,1.70
2023-05-07T10:59:44.632Z,2.10
2023-05-07T11:03:10.269Z,1.50
2023-05-07T11:05:42.288Z,2.20
2023-05-07T11:08:56.546Z,2.10
2023-05-07T11:11:49.191Z,1.80
2023-05-07T11:14:48.867Z,1.60
2023-05-07T11:17:20.903Z,1.80
2023-05-07T11:20:09.742Z,1.90
2023-05-07T11:22:44.634Z,1.70
2023-05-07T11:25:34.969Z,1.70
2023-05-07T11:28:14.313Z,2.00
2023-05-07T11:30:47.324Z,1.70
2023-05-07T11:33:19.295Z,1.60
2023-05-07T11:35:47.676Z,1.40
2023-05-07T11:38:15.914Z,1.80
2023-05-07T11:40:54.569Z,1.50
2023-05-07T11:43:30.777Z,1.70
2023-05-07T11:46:06.827Z,1.70
2023-05-07T11:48:34.009Z,1.80
2023-05-07T11:51:06.480Z,1.70
2023-05-07T11:53:40.733Z,1.40
2023-05-07T11:56:12.461Z,1.50
2023-05-07T11:58:40.020Z,1.90
2023-05-07T12:01:10.373Z,1.40
2023-05-07T12:03:38.696Z,1.80
2023-05-07T12:06:07.651Z,2.10
2023-05-07T12:08:35.164Z,1.50
2023-05-07T12:11:04.747Z,1.80
2023-05-07T12:13:32.044Z,1.70
2023-05-07T12:16:13.453Z,1.30
2023-05-07T12:18:41.228Z,1.70
2023-05-07T12:21:09.936Z,1.70
2023-05-07T12:23:38.064Z,1.40
2023-05-07T12:26:08.708Z,1.70
2023-05-07T12:28:40.959Z,1.60
2023-05-07T12:31:08.607Z,2.60
2023-05-07T12:33:36.963Z,1.30
2023-05-07T12:36:09.005Z,1.30
2023-05-07T12:38:41.262Z,1.30
2023-05-07T12:41:11.947Z,1.40
2023-05-07T12:43:39.396Z,1.60
2023-05-07T12:46:08.491Z,1.60
2023-05-07T12:48:35.832Z,1.50
2023-05-07T12:51:03.881Z,1.50
2023-05-07T12:53:33.853Z,1.30
2023-05-07T12:56:01.911Z,1.60
2023-05-07T12:58:31.205Z,2.00
2023-05-07T13:01:01.027Z,3.80
2023-05-07T13:03:30.551Z,1.70
2023-05-07T13:06:00.215Z,1.70
2023-05-07T13:08:33.337Z,1.50
2023-05-07T13:11:04.156Z,1.20
2023-05-07T13:13:34.894Z,1.40
2023-05-07T13:16:02.460Z,1.50
2023-05-07T13:18:31.556Z,1.50
2023-05-07T13:20:58.706Z,1.50
2023-05-07T13:23:39.680Z,1.60
2023-05-07T13:26:18.471Z,1.50
2023-05-07T13:28:53.464Z,1.60
2023-05-07T13:31:23.677Z,1.50
2023-05-07T13:33:51.160Z,2.00
2023-05-07T13:36:29.658Z,1.50
2023-05-07T13:38:56.808Z,1.30
2023-05-07T13:41:44.147Z,1.50
2023-05-07T13:44:31.210Z,1.60
2023-05-07T13:46:58.283Z,1.30
2023-05-07T13:49:25.440Z,1.40
2023-05-07T13:51:52.574Z,1.40
2023-05-07T13:54:19.707Z,1.40
2023-05-07T13:56:48.991Z,1.60
2023-05-07T13:59:16.980Z,2.60
2023-05-07T14:01:44.309Z,1.40
2023-05-07T14:04:11.277Z,1.50
2023-05-07T14:06:38.276Z,1.40
2023-05-07T14:09:05.518Z,1.40
2023-05-07T14:11:33.839Z,1.30
2023-05-07T14:14:01.731Z,1.30
2023-05-07T14:16:29.035Z,1.50
2023-05-07T14:18:58.127Z,1.20
2023-05-07T14:21:28.011Z,1.50
2023-05-07T14:23:55.463Z,1.30
2023-05-07T14:26:24.064Z,1.60
2023-05-07T14:28:51.496Z,1.40
2023-05-07T14:31:21.841Z,1.50
2023-05-07T14:33:50.831Z,1.60
2023-05-07T14:36:18.196Z,1.50
2023-05-07T14:38:46.167Z,1.50
2023-05-07T14:41:12.993Z,1.60
2023-05-07T14:43:39.974Z,1.50
2023-05-07T14:46:07.080Z,1.30
2023-05-07T14:48:33.976Z,1.50
2023-05-07T14:51:01.007Z,2.00
2023-05-07T14:53:28.098Z,1.50
2023-05-07T14:55:57.881Z,1.50
2023-05-07T14:58:24.998Z,1.70
2023-05-07T15:00:52.082Z,1.90
2023-05-07T15:03:19.349Z,2.00
2023-05-07T15:05:46.589Z,1.70
2023-05-07T15:08:13.732Z,1.60
2023-05-07T15:10:42.858Z,2.10
2023-05-07T15:13:13.393Z,1.70
2023-05-07T15:15:54.246Z,1.70
2023-05-07T15:18:22.683Z,1.90
2023-05-07T15:20:59.896Z,1.90
2023-05-07T15:23:29.292Z,1.70
2023-05-07T15:26:17.023Z,1.90
2023-05-07T15:28:44.151Z,1.90
2023-05-07T15:31:11.485Z,1.80
2023-05-07T15:33:48.583Z,1.90
2023-05-07T15:36:15.746Z,1.80
2023-05-07T15:38:42.824Z,1.80
2023-05-07T15:41:10.287Z,2.00
2023-05-07T15:43:45.269Z,1.90
2023-05-07T15:46:12.569Z,1.40
2023-05-07T15:48:39.821Z,2.20
2023-05-07T15:51:08.940Z,2.40
2023-05-07T15:53:36.002Z,2.30
2023-05-07T15:56:02.878Z,2.20
2023-05-07T15:58:29.896Z,1.70
2023-05-07T16:00:57.488Z,2.10
2023-05-07T16:03:24.986Z,2.10
2023-05-07T16:05:52.308Z,1.80
2023-05-07T16:08:22.487Z,2.00
2023-05-07T16:10:49.463Z,1.60
2023-05-07T16:13:19.271Z,1.80
2023-05-07T16:15:46.788Z,2.10
2023-05-07T16:18:16.234Z,1.90
2023-05-07T16:20:44.217Z,1.70
2023-05-07T16:23:13.218Z,1.80
2023-05-07T16:25:40.232Z,2.00
2023-05-07T16:28:16.934Z,1.20
2023-05-07T16:30:45.506Z,1.80
2023-05-07T16:33:26.056Z,1.80
2023-05-07T16:35:55.755Z,2.00
2023-05-07T16:38:22.757Z,1.80
2023-05-07T16:40:50.163Z,2.20
2023-05-07T16:43:20.203Z,1.70
2023-05-07T16:45:48.459Z,2.20
2023-05-07T16:48:15.939Z,2.20
2023-05-07T16:50:44.655Z,1.90
2023-05-07T16:53:12.135Z,1.80
2023-05-07T16:55:42.535Z,2.00
2023-05-07T16:58:11.378Z,2.60
2023-05-07T17:00:50.034Z,2.30
2023-05-07T17:03:18.473Z,2.70
2023-05-07T17:05:46.070Z,2.90
2023-05-07T17:08:14.453Z,2.90
2023-05-07T17:10:42.496Z,3.20
2023-05-07T17:13:09.740Z,3.20
2023-05-07T17:15:36.882Z,3.20
2023-05-07T17:18:04.381Z,2.80
2023-05-07T17:20:51.702Z,2.10
2023-05-07T17:23:40.629Z,2.40
2023-05-07T17:26:19.527Z,2.10
2023-05-07T17:28:48.638Z,2.30
2023-05-07T17:31:18.839Z,2.50
2023-05-07T17:33:45.831Z,2.00
2023-05-07T17:36:16.134Z,2.40
2023-05-07T17:38:45.895Z,2.00
2023-05-07T17:41:12.897Z,2.30
2023-05-07T17:43:40.033Z,2.30
2023-05-07T17:47:26.776Z,2.40
2023-05-07T17:49:54.215Z,2.90
2023-05-07T17:52:21.199Z,3.00
2023-05-07T17:54:48.201Z,3.20
2023-05-07T17:57:15.209Z,4.20
2023-05-07T17:59:42.822Z,4.10
2023-05-07T18:02:09.835Z,3.60
2023-05-07T18:04:37.320Z,3.30
2023-05-07T18:07:04.269Z,2.80
2023-05-07T18:09:31.554Z,2.80
2023-05-07T18:11:58.568Z,4.80
2023-05-07T18:14:26.320Z,3.70
2023-05-07T18:16:54.202Z,3.40
2023-05-07T18:19:21.647Z,2.80
2023-05-07T18:21:51.627Z,3.00
2023-05-07T18:24:19.978Z,2.80
2023-05-07T18:27:00.094Z,3.20
2023-05-07T18:29:27.085Z,2.90
2023-05-07T18:31:54.289Z,3.10
2023-05-07T18:34:21.665Z,2.80
2023-05-07T18:36:48.805Z,2.50
2023-05-07T18:39:16.090Z,2.50
2023-05-07T18:41:45.279Z,2.90
2023-05-07T18:44:12.539Z,3.00
2023-05-07T18:46:39.780Z,2.90
2023-05-07T18:49:07.241Z,3.10
2023-05-07T18:51:34.425Z,2.60
2023-05-07T18:54:02.192Z,2.80
2023-05-07T18:56:29.605Z,2.60
2023-05-07T18:58:56.549Z,2.50
2023-05-07T19:01:23.423Z,2.40
2023-05-07T19:03:50.911Z,2.90
2023-05-07T19:06:18.292Z,2.80
2023-05-07T19:08:47.822Z,3.10
2023-05-07T19:11:15.709Z,2.90
2023-05-07T19:13:45.479Z,3.10
2023-05-07T19:16:15.559Z,2.90
2023-05-07T19:18:43.567Z,2.90
2023-05-07T19:21:11.151Z,3.30
2023-05-07T19:23:41.949Z,3.50
2023-05-07T19:26:09.549Z,3.80
2023-05-07T19:28:37.852Z,3.30
2023-05-07T19:31:05.343Z,3.60
2023-05-07T19:33:35.113Z,3.60
2023-05-07T19:36:02.904Z,4.30
2023-05-07T19:38:30.294Z,4.00
2023-05-07T19:40:58.940Z,4.10
2023-05-07T19:43:28.047Z,4.20
2023-05-07T19:45:56.362Z,3.90
2023-05-07T19:48:23.713Z,3.80
2023-05-07T19:50:51.775Z,4.50
2023-05-07T19:53:19.030Z,4.30
2023-05-07T19:55:52.362Z,3.90
2023-05-07T19:58:20.400Z,4.10
2023-05-07T20:00:47.651Z,4.10
2023-05-07T20:03:18.834Z,4.20
2023-05-07T20:05:50.596Z,3.60
2023-05-07T20:08:17.687Z,4.60
2023-05-07T20:10:44.767Z,4.30
2023-05-07T20:13:12.061Z,4.50
2023-05-07T20:15:40.935Z,3.90
2023-05-07T20:18:08.682Z,4.30
2023-05-07T20:20:36.340Z,4.10
2023-05-07T20:23:03.489Z,4.70
2023-05-07T20:25:31.062Z,4.20
2023-05-07T20:28:09.299Z,4.20
2023-05-07T20:30:38.769Z,4.00
2023-05-07T20:33:07.999Z,4.60
2023-05-07T20:35:37.340Z,4.00
2023-05-07T20:38:04.506Z,4.60
2023-05-07T20:40:33.816Z,4.20
2023-05-07T20:43:21.910Z,4.40
2023-05-07T20:45:48.852Z,4.50
2023-05-07T20:48:15.927Z,4.20
2023-05-07T20:50:43.526Z,4.30
2023-05-07T20:53:10.546Z,4.20
2023-05-07T20:55:37.606Z,4.90
2023-05-07T20:58:14.061Z,4.90
2023-05-07T21:00:43.435Z,5.00
2023-05-07T21:06:00.054Z,4.50
2023-05-07T21:08:33.181Z,4.80
2023-05-07T21:11:10.234Z,4.50
2023-05-07T21:13:37.454Z,4.50
2023-05-07T21:16:04.581Z,5.10
2023-05-07T21:18:31.908Z,4.80
2023-05-07T21:20:58.992Z,4.40
2023-05-07T21:23:25.961Z,4.30
2023-05-07T21:25:52.941Z,4.20
2023-05-07T21:28:20.314Z,3.80
2023-05-07T21:30:47.192Z,4.20
2023-05-07T21:33:14.154Z,4.30
2023-05-07T21:35:41.212Z,5.00
2023-05-07T21:38:09.020Z,5.10
2023-05-07T21:40:36.346Z,5.30
2023-05-07T21:43:13.610Z,5.50
2023-05-07T21:45:42.038Z,4.60
2023-05-07T21:48:09.772Z,5.00
2023-05-07T21:50:37.391Z,5.10
2023-05-07T21:53:04.533Z,4.20
2023-05-07T21:55:42.613Z,4.60
2023-05-07T21:58:12.333Z,4.30
2023-05-07T22:00:39.580Z,4.20
2023-05-07T22:03:09.579Z,4.70
2023-05-07T22:08:11.996Z,4.80
2023-05-07T22:10:39.135Z,5.00
2023-05-07T22:13:06.290Z,4.80
2023-05-07T22:15:37.247Z,4.30
2023-05-07T22:18:06.994Z,4.50
2023-05-07T22:20:34.525Z,4.30
2023-05-07T22:23:01.547Z,4.00
2023-05-07T22:25:32.744Z,4.60
2023-05-07T22:28:00.251Z,4.00
2023-05-07T22:30:30.454Z,5.00
2023-05-07T22:32:57.845Z,4.70
2023-05-07T22:35:25.018Z,4.50
2023-05-07T22:37:52.289Z,4.80
2023-05-07T22:40:19.601Z,4.40
2023-05-07T22:43:07.311Z,4.40
2023-05-07T22:45:34.484Z,4.20
2023-05-07T22:48:01.758Z,4.60
2023-05-07T22:50:29.488Z,3.70
2023-05-07T22:52:58.724Z,4.40
2023-05-07T22:55:28.604Z,4.40
2023-05-07T22:57:55.758Z,4.00
2023-05-07T23:00:43.836Z,4.20
2023-05-07T23:03:11.075Z,4.20
2023-05-07T23:05:41.269Z,4.20
2023-05-07T23:08:11.544Z,4.30
2023-05-07T23:10:38.580Z,4.90
2023-05-07T23:13:06.234Z,4.20
2023-05-07T23:15:53.719Z,4.10
2023-05-07T23:18:23.669Z,4.50
2023-05-07T23:21:11.172Z,5.00
2023-05-07T23:23:38.414Z,5.20
2023-05-07T23:26:05.566Z,5.10
2023-05-07T23:28:32.628Z,5.20
2023-05-07T23:30:59.609Z,6.10
2023-05-07T23:33:26.854Z,5.60
2023-05-07T23:36:01.404Z,5.50
2023-05-07T23:38:48.657Z,5.50
2023-05-07T23:41:19.105Z,5.80
2023-05-07T23:43:46.139Z,5.80
2023-05-07T23:46:13.116Z,5.90
2023-05-07T23:48:40.883Z,5.30
2023-05-07T23:51:08.201Z,5.60
2023-05-07T23:53:38.329Z,5.30
2023-05-07T23:56:06.063Z,5.60
2023-05-07T23:58:35.898Z,4.90
